sensor_id;sensor_type;location;lat;lon;timestamp;temperature;humidity
25046;DHT22;13044;49.304;12.840;2022-12-18T00:01:25;-5.00;99.90
25046;DHT22;13044;49.304;12.840;2022-12-18T00:03:55;-5.00;99.90
25046;DHT22;13044;49.304;12.840;2022-12-18T00:06:23;-5.00;99.90
25046;DHT22;13044;49.304;12.840;2022-12-18T00:08:51;-4.90;99.90
25046;DHT22;13044;49.304;12.840;2022-12-18T00:11:21;-4.90;99.90
25046;DHT22;13044;49.304;12.840;2022-12-18T00:13:50;-4.90;99.90
25046;DHT22;13044;49.304;12.840;2022-12-18T00:16:20;-4.90;99.90
25046;DHT22;13044;49.304;12.840;2022-12-18T00:18:49;-4.90;99.90
25046;DHT22;13044;49.304;12.840;2022-12-18T00:21:18;-4.90;99.90
25046;DHT22;13044;49.304;12.840;2022-12-18T00:23:47;-5.00;99.90
25046;DHT22;13044;49.304;12.840;2022-12-18T00:26:20;-4.90;99.90
25046;DHT22;13044;49.304;12.840;2022-12-18T00:28:49;-5.00;99.90
25046;DHT22;13044;49.304;12.840;2022-12-18T00:31:19;-5.00;99.90
25046;DHT22;13044;49.304;12.840;2022-12-18T00:33:47;-5.00;99.90
25046;DHT22;13044;49.304;12.840;2022-12-18T00:36:26;-5.00;99.90
25046;DHT22;13044;49.304;12.840;2022-12-18T00:38:56;-5.00;99.90
25046;DHT22;13044;49.304;12.840;2022-12-18T00:41:24;-5.00;99.90
25046;DHT22;13044;49.304;12.840;2022-12-18T00:44:12;-5.00;99.90
25046;DHT22;13044;49.304;12.840;2022-12-18T00:46:41;-5.00;99.90
25046;DHT22;13044;49.304;12.840;2022-12-18T00:49:12;-5.00;99.90
25046;DHT22;13044;49.304;12.840;2022-12-18T00:51:38;-5.10;99.90
25046;DHT22;13044;49.304;12.840;2022-12-18T00:54:05;-5.10;99.90
25046;DHT22;13044;49.304;12.840;2022-12-18T00:56:32;-5.10;99.90
25046;DHT22;13044;49.304;12.840;2022-12-18T00:58:59;-5.10;99.90
25046;DHT22;13044;49.304;12.840;2022-12-18T01:01:26;-5.10;99.90
25046;DHT22;13044;49.304;12.840;2022-12-18T01:03:53;-5.10;99.90
25046;DHT22;13044;49.304;12.840;2022-12-18T01:06:20;-5.10;99.90
25046;DHT22;13044;49.304;12.840;2022-12-18T01:08:47;-5.10;99.90
25046;DHT22;13044;49.304;12.840;2022-12-18T01:11:16;-5.00;99.90
25046;DHT22;13044;49.304;12.840;2022-12-18T01:13:44;-5.10;99.90
25046;DHT22;13044;49.304;12.840;2022-12-18T01:16:14;-5.00;99.90
25046;DHT22;13044;49.304;12.840;2022-12-18T01:18:42;-5.00;99.90
25046;DHT22;13044;49.304;12.840;2022-12-18T01:21:12;-4.90;99.90
25046;DHT22;13044;49.304;12.840;2022-12-18T01:23:40;-4.90;99.90
25046;DHT22;13044;49.304;12.840;2022-12-18T01:26:16;-4.80;99.90
25046;DHT22;13044;49.304;12.840;2022-12-18T01:28:43;-4.80;99.90
25046;DHT22;13044;49.304;12.840;2022-12-18T01:31:16;-4.80;99.90
25046;DHT22;13044;49.304;12.840;2022-12-18T01:33:44;-4.80;99.90
25046;DHT22;13044;49.304;12.840;2022-12-18T01:36:16;-4.80;99.90
25046;DHT22;13044;49.304;12.840;2022-12-18T01:39:09;-4.70;99.90
25046;DHT22;13044;49.304;12.840;2022-12-18T01:41:38;-4.70;99.90
25046;DHT22;13044;49.304;12.840;2022-12-18T01:47:48;-4.70;99.90
25046;DHT22;13044;49.304;12.840;2022-12-18T01:50:28;-4.70;99.90
25046;DHT22;13044;49.304;12.840;2022-12-18T01:53:02;-4.70;99.90
25046;DHT22;13044;49.304;12.840;2022-12-18T01:55:48;-4.70;99.90
25046;DHT22;13044;49.304;12.840;2022-12-18T01:58:18;-4.70;99.90
25046;DHT22;13044;49.304;12.840;2022-12-18T02:00:46;-4.70;99.90
25046;DHT22;13044;49.304;12.840;2022-12-18T02:03:13;-4.60;99.90
25046;DHT22;13044;49.304;12.840;2022-12-18T02:05:51;-4.60;99.90
25046;DHT22;13044;49.304;12.840;2022-12-18T02:11:16;-4.60;99.90
25046;DHT22;13044;49.304;12.840;2022-12-18T02:17:18;-4.60;99.90
25046;DHT22;13044;49.304;12.840;2022-12-18T02:20:12;-4.60;99.90
25046;DHT22;13044;49.304;12.840;2022-12-18T02:23:06;-4.70;99.90
25046;DHT22;13044;49.304;12.840;2022-12-18T02:26:34;-4.70;99.90
25046;DHT22;13044;49.304;12.840;2022-12-18T02:29:10;-4.70;99.90
25046;DHT22;13044;49.304;12.840;2022-12-18T02:31:43;-4.80;99.90
25046;DHT22;13044;49.304;12.840;2022-12-18T02:34:13;-4.80;99.90
25046;DHT22;13044;49.304;12.840;2022-12-18T02:36:42;-4.80;99.90
25046;DHT22;13044;49.304;12.840;2022-12-18T02:39:12;-4.80;99.90
25046;DHT22;13044;49.304;12.840;2022-12-18T02:41:40;-4.90;99.90
25046;DHT22;13044;49.304;12.840;2022-12-18T02:44:12;-4.90;99.90
25046;DHT22;13044;49.304;12.840;2022-12-18T02:46:46;-4.90;99.90
25046;DHT22;13044;49.304;12.840;2022-12-18T02:49:26;-4.90;99.90
25046;DHT22;13044;49.304;12.840;2022-12-18T02:52:22;-4.90;99.90
25046;DHT22;13044;49.304;12.840;2022-12-18T02:55:17;-5.00;99.90
25046;DHT22;13044;49.304;12.840;2022-12-18T02:57:56;-5.00;99.90
25046;DHT22;13044;49.304;12.840;2022-12-18T03:03:26;-5.10;99.90
25046;DHT22;13044;49.304;12.840;2022-12-18T03:06:07;-5.20;99.90
25046;DHT22;13044;49.304;12.840;2022-12-18T03:08:40;-5.20;99.90
25046;DHT22;13044;49.304;12.840;2022-12-18T03:11:10;-5.30;99.90
25046;DHT22;13044;49.304;12.840;2022-12-18T03:13:50;-5.40;99.90
25046;DHT22;13044;49.304;12.840;2022-12-18T03:16:30;-5.40;99.90
25046;DHT22;13044;49.304;12.840;2022-12-18T03:19:08;-5.50;99.90
25046;DHT22;13044;49.304;12.840;2022-12-18T03:21:57;-5.50;99.90
25046;DHT22;13044;49.304;12.840;2022-12-18T03:24:27;-5.50;99.90
25046;DHT22;13044;49.304;12.840;2022-12-18T03:27:02;-5.60;99.90
25046;DHT22;13044;49.304;12.840;2022-12-18T03:29:37;-5.60;99.90
25046;DHT22;13044;49.304;12.840;2022-12-18T03:32:12;-5.60;99.90
25046;DHT22;13044;49.304;12.840;2022-12-18T03:34:46;-5.70;99.90
25046;DHT22;13044;49.304;12.840;2022-12-18T03:37:15;-5.70;99.90
25046;DHT22;13044;49.304;12.840;2022-12-18T03:39:42;-5.70;99.90
25046;DHT22;13044;49.304;12.840;2022-12-18T03:42:21;-5.70;99.90
25046;DHT22;13044;49.304;12.840;2022-12-18T03:45:27;-5.70;99.90
25046;DHT22;13044;49.304;12.840;2022-12-18T03:48:09;-5.70;99.90
25046;DHT22;13044;49.304;12.840;2022-12-18T03:50:57;-5.70;99.90
25046;DHT22;13044;49.304;12.840;2022-12-18T03:53:37;-5.70;99.90
25046;DHT22;13044;49.304;12.840;2022-12-18T03:56:09;-5.70;99.90
25046;DHT22;13044;49.304;12.840;2022-12-18T03:58:37;-5.70;99.90
25046;DHT22;13044;49.304;12.840;2022-12-18T04:01:08;-5.70;99.90
25046;DHT22;13044;49.304;12.840;2022-12-18T04:03:37;-5.70;99.90
25046;DHT22;13044;49.304;12.840;2022-12-18T04:06:06;-5.70;99.90
25046;DHT22;13044;49.304;12.840;2022-12-18T04:08:34;-5.70;99.90
25046;DHT22;13044;49.304;12.840;2022-12-18T04:11:01;-5.80;99.90
25046;DHT22;13044;49.304;12.840;2022-12-18T04:13:32;-5.80;99.90
25046;DHT22;13044;49.304;12.840;2022-12-18T04:16:01;-5.80;99.90
25046;DHT22;13044;49.304;12.840;2022-12-18T04:18:28;-5.80;99.90
25046;DHT22;13044;49.304;12.840;2022-12-18T04:20:55;-5.80;99.90
25046;DHT22;13044;49.304;12.840;2022-12-18T04:23:24;-5.80;99.90
25046;DHT22;13044;49.304;12.840;2022-12-18T04:25:51;-5.80;99.90
25046;DHT22;13044;49.304;12.840;2022-12-18T04:28:18;-5.80;99.90
25046;DHT22;13044;49.304;12.840;2022-12-18T04:30:45;-5.90;99.90
25046;DHT22;13044;49.304;12.840;2022-12-18T04:33:16;-5.90;99.90
25046;DHT22;13044;49.304;12.840;2022-12-18T04:35:43;-5.90;99.90
25046;DHT22;13044;49.304;12.840;2022-12-18T04:38:10;-5.90;99.90
25046;DHT22;13044;49.304;12.840;2022-12-18T04:40:37;-5.90;99.90
25046;DHT22;13044;49.304;12.840;2022-12-18T04:43:05;-5.90;99.90
25046;DHT22;13044;49.304;12.840;2022-12-18T04:45:32;-5.90;99.90
25046;DHT22;13044;49.304;12.840;2022-12-18T04:48:02;-5.90;99.90
25046;DHT22;13044;49.304;12.840;2022-12-18T04:50:29;-5.90;99.90
25046;DHT22;13044;49.304;12.840;2022-12-18T04:52:56;-5.90;99.90
25046;DHT22;13044;49.304;12.840;2022-12-18T04:55:23;-5.90;99.90
25046;DHT22;13044;49.304;12.840;2022-12-18T04:57:50;-5.90;99.90
25046;DHT22;13044;49.304;12.840;2022-12-18T05:00:17;-5.80;99.90
25046;DHT22;13044;49.304;12.840;2022-12-18T05:02:44;-5.90;99.90
25046;DHT22;13044;49.304;12.840;2022-12-18T05:05:12;-5.90;99.90
25046;DHT22;13044;49.304;12.840;2022-12-18T05:07:39;-5.90;99.90
25046;DHT22;13044;49.304;12.840;2022-12-18T05:10:07;-5.80;99.90
25046;DHT22;13044;49.304;12.840;2022-12-18T05:12:35;-5.80;99.90
25046;DHT22;13044;49.304;12.840;2022-12-18T05:15:22;-5.80;99.90
25046;DHT22;13044;49.304;12.840;2022-12-18T05:17:49;-5.80;99.90
25046;DHT22;13044;49.304;12.840;2022-12-18T05:20:16;-5.80;99.90
25046;DHT22;13044;49.304;12.840;2022-12-18T05:22:44;-5.80;99.90
25046;DHT22;13044;49.304;12.840;2022-12-18T05:25:11;-5.90;99.90
25046;DHT22;13044;49.304;12.840;2022-12-18T05:27:38;-5.90;99.90
25046;DHT22;13044;49.304;12.840;2022-12-18T05:30:05;-6.00;99.90
25046;DHT22;13044;49.304;12.840;2022-12-18T05:32:40;-6.00;99.90
25046;DHT22;13044;49.304;12.840;2022-12-18T05:35:09;-6.10;99.90
25046;DHT22;13044;49.304;12.840;2022-12-18T05:37:37;-6.20;99.90
25046;DHT22;13044;49.304;12.840;2022-12-18T05:40:09;-6.30;99.90
25046;DHT22;13044;49.304;12.840;2022-12-18T05:42:37;-6.30;99.90
25046;DHT22;13044;49.304;12.840;2022-12-18T05:45:05;-6.30;99.90
25046;DHT22;13044;49.304;12.840;2022-12-18T05:47:32;-6.40;99.90
25046;DHT22;13044;49.304;12.840;2022-12-18T05:49:59;-6.40;99.90
25046;DHT22;13044;49.304;12.840;2022-12-18T05:52:26;-6.40;99.90
25046;DHT22;13044;49.304;12.840;2022-12-18T05:54:52;-6.40;99.90
25046;DHT22;13044;49.304;12.840;2022-12-18T05:57:19;-6.40;99.90
25046;DHT22;13044;49.304;12.840;2022-12-18T05:59:46;-6.40;99.90
25046;DHT22;13044;49.304;12.840;2022-12-18T06:02:13;-6.40;99.90
25046;DHT22;13044;49.304;12.840;2022-12-18T06:04:40;-6.40;99.90
25046;DHT22;13044;49.304;12.840;2022-12-18T06:07:06;-6.40;99.90
25046;DHT22;13044;49.304;12.840;2022-12-18T06:09:33;-6.40;99.90
25046;DHT22;13044;49.304;12.840;2022-12-18T06:12:00;-6.30;99.90
25046;DHT22;13044;49.304;12.840;2022-12-18T06:14:27;-6.30;99.90
25046;DHT22;13044;49.304;12.840;2022-12-18T06:16:54;-6.30;99.90
25046;DHT22;13044;49.304;12.840;2022-12-18T06:19:21;-6.30;99.90
25046;DHT22;13044;49.304;12.840;2022-12-18T06:21:48;-6.30;99.90
25046;DHT22;13044;49.304;12.840;2022-12-18T06:24:15;-6.30;99.90
25046;DHT22;13044;49.304;12.840;2022-12-18T06:26:42;-6.20;99.90
25046;DHT22;13044;49.304;12.840;2022-12-18T06:29:09;-6.20;99.90
25046;DHT22;13044;49.304;12.840;2022-12-18T06:31:36;-6.20;99.90
25046;DHT22;13044;49.304;12.840;2022-12-18T06:34:04;-6.20;99.90
25046;DHT22;13044;49.304;12.840;2022-12-18T06:36:31;-6.10;99.90
25046;DHT22;13044;49.304;12.840;2022-12-18T06:38:58;-6.10;99.90
25046;DHT22;13044;49.304;12.840;2022-12-18T06:41:25;-6.10;99.90
25046;DHT22;13044;49.304;12.840;2022-12-18T06:43:55;-6.00;99.90
25046;DHT22;13044;49.304;12.840;2022-12-18T06:46:25;-6.10;99.90
25046;DHT22;13044;49.304;12.840;2022-12-18T06:48:52;-6.10;99.90
25046;DHT22;13044;49.304;12.840;2022-12-18T06:51:20;-6.10;99.90
25046;DHT22;13044;49.304;12.840;2022-12-18T06:53:49;-6.10;99.90
25046;DHT22;13044;49.304;12.840;2022-12-18T06:56:16;-6.10;99.90
25046;DHT22;13044;49.304;12.840;2022-12-18T06:58:43;-6.10;99.90
25046;DHT22;13044;49.304;12.840;2022-12-18T07:01:11;-6.10;99.90
25046;DHT22;13044;49.304;12.840;2022-12-18T07:03:39;-6.00;99.90
25046;DHT22;13044;49.304;12.840;2022-12-18T07:06:17;-6.00;99.90
25046;DHT22;13044;49.304;12.840;2022-12-18T07:08:46;-6.00;99.90
25046;DHT22;13044;49.304;12.840;2022-12-18T07:11:17;-6.00;99.90
25046;DHT22;13044;49.304;12.840;2022-12-18T07:13:44;-6.00;99.90
25046;DHT22;13044;49.304;12.840;2022-12-18T07:16:14;-6.00;99.90
25046;DHT22;13044;49.304;12.840;2022-12-18T07:18:50;-5.90;99.90
25046;DHT22;13044;49.304;12.840;2022-12-18T07:21:18;-5.90;99.90
25046;DHT22;13044;49.304;12.840;2022-12-18T07:23:46;-5.90;99.90
25046;DHT22;13044;49.304;12.840;2022-12-18T07:26:16;-5.90;99.90
25046;DHT22;13044;49.304;12.840;2022-12-18T07:28:44;-5.90;99.90
25046;DHT22;13044;49.304;12.840;2022-12-18T07:31:14;-5.90;99.90
25046;DHT22;13044;49.304;12.840;2022-12-18T07:33:43;-5.90;99.90
25046;DHT22;13044;49.304;12.840;2022-12-18T07:36:11;-5.90;99.90
25046;DHT22;13044;49.304;12.840;2022-12-18T07:38:38;-5.90;99.90
25046;DHT22;13044;49.304;12.840;2022-12-18T07:41:08;-5.90;99.90
25046;DHT22;13044;49.304;12.840;2022-12-18T07:43:40;-6.00;99.90
25046;DHT22;13044;49.304;12.840;2022-12-18T07:46:09;-6.00;99.90
25046;DHT22;13044;49.304;12.840;2022-12-18T07:48:42;-6.00;99.90
25046;DHT22;13044;49.304;12.840;2022-12-18T07:51:15;-6.10;99.90
25046;DHT22;13044;49.304;12.840;2022-12-18T07:53:43;-6.20;99.90
25046;DHT22;13044;49.304;12.840;2022-12-18T07:56:11;-6.20;99.90
25046;DHT22;13044;49.304;12.840;2022-12-18T07:58:58;-6.20;99.90
25046;DHT22;13044;49.304;12.840;2022-12-18T08:01:25;-6.20;99.90
25046;DHT22;13044;49.304;12.840;2022-12-18T08:03:53;-6.20;99.90
25046;DHT22;13044;49.304;12.840;2022-12-18T08:06:20;-6.10;99.90
25046;DHT22;13044;49.304;12.840;2022-12-18T08:08:51;-6.10;99.90
25046;DHT22;13044;49.304;12.840;2022-12-18T08:11:19;-6.10;99.90
25046;DHT22;13044;49.304;12.840;2022-12-18T08:13:47;-6.10;99.90
25046;DHT22;13044;49.304;12.840;2022-12-18T08:16:15;-6.00;99.90
25046;DHT22;13044;49.304;12.840;2022-12-18T08:18:42;-6.00;99.90
25046;DHT22;13044;49.304;12.840;2022-12-18T08:21:17;-6.00;99.90
25046;DHT22;13044;49.304;12.840;2022-12-18T08:23:48;-6.00;99.90
25046;DHT22;13044;49.304;12.840;2022-12-18T08:26:17;-6.00;99.90
25046;DHT22;13044;49.304;12.840;2022-12-18T08:28:46;-6.10;99.90
25046;DHT22;13044;49.304;12.840;2022-12-18T08:31:13;-6.00;99.90
25046;DHT22;13044;49.304;12.840;2022-12-18T08:33:40;-6.00;99.90
25046;DHT22;13044;49.304;12.840;2022-12-18T08:36:09;-6.00;99.90
25046;DHT22;13044;49.304;12.840;2022-12-18T08:38:36;-6.00;99.90
25046;DHT22;13044;49.304;12.840;2022-12-18T08:41:06;-5.90;99.90
25046;DHT22;13044;49.304;12.840;2022-12-18T08:43:34;-5.90;99.90
25046;DHT22;13044;49.304;12.840;2022-12-18T08:46:21;-5.90;99.90
25046;DHT22;13044;49.304;12.840;2022-12-18T08:48:51;-5.80;99.90
25046;DHT22;13044;49.304;12.840;2022-12-18T08:51:19;-5.80;99.90
25046;DHT22;13044;49.304;12.840;2022-12-18T08:53:46;-5.70;99.90
25046;DHT22;13044;49.304;12.840;2022-12-18T08:56:14;-5.70;99.90
25046;DHT22;13044;49.304;12.840;2022-12-18T08:58:42;-5.70;99.90
25046;DHT22;13044;49.304;12.840;2022-12-18T09:01:11;-5.60;99.90
25046;DHT22;13044;49.304;12.840;2022-12-18T09:03:39;-5.60;99.90
25046;DHT22;13044;49.304;12.840;2022-12-18T09:06:07;-5.60;99.90
25046;DHT22;13044;49.304;12.840;2022-12-18T09:08:34;-5.50;99.90
25046;DHT22;13044;49.304;12.840;2022-12-18T09:11:02;-5.50;99.90
25046;DHT22;13044;49.304;12.840;2022-12-18T09:13:29;-5.50;99.90
25046;DHT22;13044;49.304;12.840;2022-12-18T09:15:56;-5.50;99.90
25046;DHT22;13044;49.304;12.840;2022-12-18T09:18:24;-5.40;99.90
25046;DHT22;13044;49.304;12.840;2022-12-18T09:20:51;-5.40;99.90
25046;DHT22;13044;49.304;12.840;2022-12-18T09:23:22;-5.40;99.90
25046;DHT22;13044;49.304;12.840;2022-12-18T09:25:49;-5.40;99.90
25046;DHT22;13044;49.304;12.840;2022-12-18T09:28:17;-5.40;99.90
25046;DHT22;13044;49.304;12.840;2022-12-18T09:30:49;-5.40;99.90
25046;DHT22;13044;49.304;12.840;2022-12-18T09:33:16;-5.40;99.90
25046;DHT22;13044;49.304;12.840;2022-12-18T09:35:44;-5.40;99.90
25046;DHT22;13044;49.304;12.840;2022-12-18T09:38:14;-5.40;99.90
25046;DHT22;13044;49.304;12.840;2022-12-18T09:40:54;-5.40;99.90
25046;DHT22;13044;49.304;12.840;2022-12-18T09:43:46;-5.40;99.90
25046;DHT22;13044;49.304;12.840;2022-12-18T09:46:23;-5.40;99.90
25046;DHT22;13044;49.304;12.840;2022-12-18T09:48:56;-5.40;99.90
25046;DHT22;13044;49.304;12.840;2022-12-18T09:51:35;-5.30;99.90
25046;DHT22;13044;49.304;12.840;2022-12-18T09:54:12;-5.30;99.90
25046;DHT22;13044;49.304;12.840;2022-12-18T09:56:42;-5.40;99.90
25046;DHT22;13044;49.304;12.840;2022-12-18T09:59:39;-5.40;99.90
25046;DHT22;13044;49.304;12.840;2022-12-18T10:02:25;-5.40;99.90
25046;DHT22;13044;49.304;12.840;2022-12-18T10:05:03;-5.40;99.90
25046;DHT22;13044;49.304;12.840;2022-12-18T10:07:58;-5.40;99.90
25046;DHT22;13044;49.304;12.840;2022-12-18T10:13:39;-5.40;99.90
25046;DHT22;13044;49.304;12.840;2022-12-18T10:16:12;-5.40;99.90
25046;DHT22;13044;49.304;12.840;2022-12-18T10:19:03;-5.40;99.90
25046;DHT22;13044;49.304;12.840;2022-12-18T10:21:55;-5.40;99.90
25046;DHT22;13044;49.304;12.840;2022-12-18T10:24:44;-5.40;99.90
25046;DHT22;13044;49.304;12.840;2022-12-18T10:27:23;-5.30;99.90
25046;DHT22;13044;49.304;12.840;2022-12-18T10:29:53;-5.30;99.90
25046;DHT22;13044;49.304;12.840;2022-12-18T10:32:23;-5.20;99.90
25046;DHT22;13044;49.304;12.840;2022-12-18T10:34:53;-5.20;99.90
25046;DHT22;13044;49.304;12.840;2022-12-18T10:37:28;-5.20;99.90
25046;DHT22;13044;49.304;12.840;2022-12-18T10:40:15;-5.10;99.90
25046;DHT22;13044;49.304;12.840;2022-12-18T10:43:13;-5.10;99.90
25046;DHT22;13044;49.304;12.840;2022-12-18T10:45:42;-5.00;99.90
25046;DHT22;13044;49.304;12.840;2022-12-18T10:48:28;-5.00;99.90
25046;DHT22;13044;49.304;12.840;2022-12-18T10:50:57;-4.90;99.90
25046;DHT22;13044;49.304;12.840;2022-12-18T10:53:42;-4.90;99.90
25046;DHT22;13044;49.304;12.840;2022-12-18T10:56:10;-4.80;99.90
25046;DHT22;13044;49.304;12.840;2022-12-18T10:58:38;-4.70;99.90
25046;DHT22;13044;49.304;12.840;2022-12-18T11:01:17;-4.70;99.90
25046;DHT22;13044;49.304;12.840;2022-12-18T11:06:28;-4.50;99.90
25046;DHT22;13044;49.304;12.840;2022-12-18T11:11:50;-4.40;99.90
25046;DHT22;13044;49.304;12.840;2022-12-18T11:14:35;-4.30;99.90
25046;DHT22;13044;49.304;12.840;2022-12-18T11:17:20;-4.20;99.90
25046;DHT22;13044;49.304;12.840;2022-12-18T11:20:00;-4.10;99.90
25046;DHT22;13044;49.304;12.840;2022-12-18T11:22:36;-4.10;99.90
25046;DHT22;13044;49.304;12.840;2022-12-18T11:25:16;-4.00;99.90
25046;DHT22;13044;49.304;12.840;2022-12-18T11:30:36;-3.90;99.90
25046;DHT22;13044;49.304;12.840;2022-12-18T11:33:11;-3.90;99.90
25046;DHT22;13044;49.304;12.840;2022-12-18T11:35:54;-3.90;99.90
25046;DHT22;13044;49.304;12.840;2022-12-18T11:38:35;-3.80;99.90
25046;DHT22;13044;49.304;12.840;2022-12-18T11:44:21;-3.80;99.90
25046;DHT22;13044;49.304;12.840;2022-12-18T11:47:19;-3.80;99.90
25046;DHT22;13044;49.304;12.840;2022-12-18T11:49:52;-3.80;99.90
25046;DHT22;13044;49.304;12.840;2022-12-18T11:52:36;-3.80;99.90
25046;DHT22;13044;49.304;12.840;2022-12-18T11:57:49;-3.80;99.90
25046;DHT22;13044;49.304;12.840;2022-12-18T12:00:42;-3.80;99.90
25046;DHT22;13044;49.304;12.840;2022-12-18T12:15:40;-3.70;99.90
25046;DHT22;13044;49.304;12.840;2022-12-18T12:18:34;-3.60;99.90
25046;DHT22;13044;49.304;12.840;2022-12-18T12:27:28;-3.60;99.90
25046;DHT22;13044;49.304;12.840;2022-12-18T12:36:22;-3.60;99.90
25046;DHT22;13044;49.304;12.840;2022-12-18T12:39:01;-3.60;99.90
25046;DHT22;13044;49.304;12.840;2022-12-18T12:41:33;-3.60;99.90
25046;DHT22;13044;49.304;12.840;2022-12-18T12:44:24;-3.60;99.90
25046;DHT22;13044;49.304;12.840;2022-12-18T12:46:58;-3.50;99.90
25046;DHT22;13044;49.304;12.840;2022-12-18T12:49:31;-3.50;99.90
25046;DHT22;13044;49.304;12.840;2022-12-18T12:52:12;-3.40;99.90
25046;DHT22;13044;49.304;12.840;2022-12-18T12:54:42;-3.30;99.90
25046;DHT22;13044;49.304;12.840;2022-12-18T12:57:30;-3.30;99.90
25046;DHT22;13044;49.304;12.840;2022-12-18T13:00:13;-3.20;99.90
25046;DHT22;13044;49.304;12.840;2022-12-18T13:05:39;-3.20;99.90
25046;DHT22;13044;49.304;12.840;2022-12-18T13:08:25;-3.10;99.90
25046;DHT22;13044;49.304;12.840;2022-12-18T13:10:59;-3.10;99.90
25046;DHT22;13044;49.304;12.840;2022-12-18T13:13:50;-3.10;99.90
25046;DHT22;13044;49.304;12.840;2022-12-18T13:16:22;-3.10;99.90
25046;DHT22;13044;49.304;12.840;2022-12-18T13:18:52;-3.10;99.90
25046;DHT22;13044;49.304;12.840;2022-12-18T13:21:25;-3.10;99.90
25046;DHT22;13044;49.304;12.840;2022-12-18T13:23:55;-3.10;99.90
25046;DHT22;13044;49.304;12.840;2022-12-18T13:28:55;-3.20;99.90
25046;DHT22;13044;49.304;12.840;2022-12-18T13:34:16;-3.30;99.90
25046;DHT22;13044;49.304;12.840;2022-12-18T13:36:57;-3.30;99.90
25046;DHT22;13044;49.304;12.840;2022-12-18T13:39:52;-3.30;99.90
25046;DHT22;13044;49.304;12.840;2022-12-18T13:42:31;-3.40;99.90
25046;DHT22;13044;49.304;12.840;2022-12-18T13:46:01;-3.40;99.90
25046;DHT22;13044;49.304;12.840;2022-12-18T13:48:32;-3.50;99.90
25046;DHT22;13044;49.304;12.840;2022-12-18T13:51:06;-3.50;99.90
25046;DHT22;13044;49.304;12.840;2022-12-18T13:53:41;-3.50;99.90
25046;DHT22;13044;49.304;12.840;2022-12-18T13:56:16;-3.50;99.90
25046;DHT22;13044;49.304;12.840;2022-12-18T14:02:14;-3.60;99.90
25046;DHT22;13044;49.304;12.840;2022-12-18T14:04:46;-3.60;99.90
25046;DHT22;13044;49.304;12.840;2022-12-18T14:07:16;-3.60;99.90
25046;DHT22;13044;49.304;12.840;2022-12-18T14:09:55;-3.60;99.90
25046;DHT22;13044;49.304;12.840;2022-12-18T14:12:50;-3.60;99.90
25046;DHT22;13044;49.304;12.840;2022-12-18T14:20:32;-3.60;99.90
25046;DHT22;13044;49.304;12.840;2022-12-18T14:22:59;-3.60;99.90
25046;DHT22;13044;49.304;12.840;2022-12-18T14:25:29;-3.60;99.90
25046;DHT22;13044;49.304;12.840;2022-12-18T14:30:39;-3.70;99.90
25046;DHT22;13044;49.304;12.840;2022-12-18T14:36:03;-3.70;99.90
25046;DHT22;13044;49.304;12.840;2022-12-18T14:38:35;-3.70;99.90
25046;DHT22;13044;49.304;12.840;2022-12-18T14:41:04;-3.80;99.90
25046;DHT22;13044;49.304;12.840;2022-12-18T14:43:34;-3.80;99.90
25046;DHT22;13044;49.304;12.840;2022-12-18T14:46:05;-3.80;99.90
25046;DHT22;13044;49.304;12.840;2022-12-18T14:48:41;-3.80;99.90
25046;DHT22;13044;49.304;12.840;2022-12-18T14:51:17;-3.90;99.90
25046;DHT22;13044;49.304;12.840;2022-12-18T14:54:06;-3.90;99.90
25046;DHT22;13044;49.304;12.840;2022-12-18T14:56:47;-4.00;99.90
25046;DHT22;13044;49.304;12.840;2022-12-18T14:59:19;-4.00;99.90
25046;DHT22;13044;49.304;12.840;2022-12-18T15:04:45;-4.10;99.90
25046;DHT22;13044;49.304;12.840;2022-12-18T15:07:14;-4.20;99.90
25046;DHT22;13044;49.304;12.840;2022-12-18T15:23:26;-4.40;99.90
25046;DHT22;13044;49.304;12.840;2022-12-18T15:26:07;-4.40;99.90
25046;DHT22;13044;49.304;12.840;2022-12-18T15:28:49;-4.40;99.90
25046;DHT22;13044;49.304;12.840;2022-12-18T15:31:35;-4.40;99.90
25046;DHT22;13044;49.304;12.840;2022-12-18T15:36:34;-4.50;99.90
25046;DHT22;13044;49.304;12.840;2022-12-18T15:39:03;-4.50;99.90
25046;DHT22;13044;49.304;12.840;2022-12-18T15:41:34;-4.50;99.90
25046;DHT22;13044;49.304;12.840;2022-12-18T15:44:03;-4.60;99.90
25046;DHT22;13044;49.304;12.840;2022-12-18T15:46:42;-4.60;99.90
25046;DHT22;13044;49.304;12.840;2022-12-18T15:49:09;-4.60;99.90
25046;DHT22;13044;49.304;12.840;2022-12-18T15:51:37;-4.60;99.90
25046;DHT22;13044;49.304;12.840;2022-12-18T15:54:08;-4.60;99.90
25046;DHT22;13044;49.304;12.840;2022-12-18T15:56:37;-4.60;99.90
25046;DHT22;13044;49.304;12.840;2022-12-18T15:59:24;-4.60;99.90
25046;DHT22;13044;49.304;12.840;2022-12-18T16:01:51;-4.70;99.90
25046;DHT22;13044;49.304;12.840;2022-12-18T16:04:22;-4.60;99.90
25046;DHT22;13044;49.304;12.840;2022-12-18T16:06:50;-4.60;99.90
25046;DHT22;13044;49.304;12.840;2022-12-18T16:09:38;-4.60;99.90
25046;DHT22;13044;49.304;12.840;2022-12-18T16:12:06;-4.60;99.90
25046;DHT22;13044;49.304;12.840;2022-12-18T16:14:35;-4.50;99.90
25046;DHT22;13044;49.304;12.840;2022-12-18T16:17:06;-4.50;99.90
25046;DHT22;13044;49.304;12.840;2022-12-18T16:19:36;-4.50;99.90
25046;DHT22;13044;49.304;12.840;2022-12-18T16:22:03;-4.50;99.90
25046;DHT22;13044;49.304;12.840;2022-12-18T16:24:32;-4.40;99.90
25046;DHT22;13044;49.304;12.840;2022-12-18T16:27:00;-4.30;99.90
25046;DHT22;13044;49.304;12.840;2022-12-18T16:29:28;-4.30;99.90
25046;DHT22;13044;49.304;12.840;2022-12-18T16:31:56;-4.20;99.90
25046;DHT22;13044;49.304;12.840;2022-12-18T16:34:27;-4.20;99.90
25046;DHT22;13044;49.304;12.840;2022-12-18T16:37:06;-4.20;99.90
25046;DHT22;13044;49.304;12.840;2022-12-18T16:39:35;-4.10;99.90
25046;DHT22;13044;49.304;12.840;2022-12-18T16:42:05;-4.10;99.90
25046;DHT22;13044;49.304;12.840;2022-12-18T16:44:34;-4.00;99.90
25046;DHT22;13044;49.304;12.840;2022-12-18T16:47:01;-4.00;99.90
25046;DHT22;13044;49.304;12.840;2022-12-18T16:49:29;-4.00;99.90
25046;DHT22;13044;49.304;12.840;2022-12-18T16:51:56;-4.00;99.90
25046;DHT22;13044;49.304;12.840;2022-12-18T16:54:23;-3.90;99.90
25046;DHT22;13044;49.304;12.840;2022-12-18T16:56:51;-3.90;99.90
25046;DHT22;13044;49.304;12.840;2022-12-18T16:59:18;-3.90;99.90
25046;DHT22;13044;49.304;12.840;2022-12-18T17:01:45;-3.80;99.90
25046;DHT22;13044;49.304;12.840;2022-12-18T17:04:14;-3.80;99.90
25046;DHT22;13044;49.304;12.840;2022-12-18T17:06:43;-3.80;99.90
25046;DHT22;13044;49.304;12.840;2022-12-18T17:09:12;-3.80;99.90
25046;DHT22;13044;49.304;12.840;2022-12-18T17:11:40;-3.80;99.90
25046;DHT22;13044;49.304;12.840;2022-12-18T17:14:16;-3.70;99.90
25046;DHT22;13044;49.304;12.840;2022-12-18T17:16:45;-3.70;99.90
25046;DHT22;13044;49.304;12.840;2022-12-18T17:19:13;-3.70;99.90
25046;DHT22;13044;49.304;12.840;2022-12-18T17:21:46;-3.70;99.90
25046;DHT22;13044;49.304;12.840;2022-12-18T17:24:14;-3.70;99.90
25046;DHT22;13044;49.304;12.840;2022-12-18T17:26:43;-3.70;99.90